createdAt,value
2018-10-06T00:00:31.365Z,1007.26
2018-10-06T00:01:31.268Z,1007.21
2018-10-06T00:02:31.251Z,1007.17
2018-10-06T00:03:31.269Z,1007.26
2018-10-06T00:04:31.228Z,1007.27
2018-10-06T00:05:31.216Z,1007.28
2018-10-06T00:06:31.208Z,1007.24
2018-10-06T00:07:31.195Z,1007.26
2018-10-06T00:08:31.186Z,1007.28
2018-10-06T00:09:31.202Z,1007.31
2018-10-06T00:10:31.165Z,1007.30
2018-10-06T00:11:31.159Z,1007.28
2018-10-06T00:12:31.142Z,1007.28
2018-10-06T00:13:31.132Z,1007.30
2018-10-06T00:14:31.153Z,1007.31
2018-10-06T00:15:31.112Z,1007.33
2018-10-06T00:16:31.099Z,1007.32
2018-10-06T00:17:31.089Z,1007.33
2018-10-06T00:18:31.078Z,1007.33
2018-10-06T00:19:31.070Z,1007.30
2018-10-06T00:20:31.079Z,1007.34
2018-10-06T00:21:31.045Z,1007.33
2018-10-06T00:22:31.036Z,1007.29
2018-10-06T00:23:31.028Z,1007.32
2018-10-06T00:24:31.014Z,1007.26
2018-10-06T00:25:31.030Z,1007.26
2018-10-06T00:26:30.996Z,1007.25
2018-10-06T00:27:30.981Z,1007.26
2018-10-06T00:28:30.970Z,1007.28
2018-10-06T00:29:30.959Z,1007.24
2018-10-06T00:30:30.980Z,1007.25
2018-10-06T00:31:30.937Z,1007.24
2018-10-06T00:32:30.930Z,1007.22
2018-10-06T00:33:30.921Z,1007.22
2018-10-06T00:34:30.908Z,1007.26
2018-10-06T00:35:30.899Z,1007.20
2018-10-06T00:36:30.913Z,1007.20
2018-10-06T00:37:30.876Z,1007.21
2018-10-06T00:38:30.862Z,1007.17
2018-10-06T00:39:30.851Z,1007.13
2018-10-06T00:40:30.841Z,1007.15
2018-10-06T00:41:30.869Z,1007.12
2018-10-06T00:42:30.820Z,1007.15
2018-10-06T00:43:30.808Z,1007.13
2018-10-06T00:44:30.799Z,1007.14
2018-10-06T00:45:30.788Z,1007.16
2018-10-06T00:46:30.781Z,1007.16
2018-10-06T00:47:30.788Z,1007.12
2018-10-06T00:48:30.753Z,1007.10
2018-10-06T00:49:30.748Z,1007.09
2018-10-06T00:50:30.732Z,1007.13
2018-10-06T00:51:30.723Z,1007.13
2018-10-06T00:52:30.745Z,1007.11
2018-10-06T00:53:30.699Z,1007.17
2018-10-06T00:54:30.692Z,1007.14
2018-10-06T00:55:30.684Z,1007.18
2018-10-06T00:56:30.671Z,1007.15
2018-10-06T00:57:30.658Z,1007.17
2018-10-06T00:58:30.673Z,1007.14
2018-10-06T00:59:30.640Z,1007.13
2018-10-06T01:00:30.625Z,1007.15
2018-10-06T01:01:30.625Z,1007.17
2018-10-06T01:02:30.609Z,1007.08
2018-10-06T01:03:30.620Z,1007.05
2018-10-06T01:04:30.582Z,1007.07
2018-10-06T01:05:30.571Z,1007.00
2018-10-06T01:06:30.575Z,1007.03
2018-10-06T01:07:30.550Z,1007.00
2018-10-06T01:08:30.540Z,1006.97
2018-10-06T01:09:30.588Z,1006.99
2018-10-06T01:10:30.519Z,1006.95
2018-10-06T01:11:30.519Z,1006.93
2018-10-06T01:12:30.498Z,1006.89
2018-10-06T01:13:30.491Z,1006.87
2018-10-06T01:14:30.474Z,1006.86
2018-10-06T01:15:30.492Z,1006.87
2018-10-06T01:16:30.454Z,1006.84
2018-10-06T01:17:30.443Z,1006.78
2018-10-06T01:18:30.445Z,1006.76
2018-10-06T01:19:30.443Z,1006.75
2018-10-06T01:20:30.435Z,1006.75
2018-10-06T01:21:30.400Z,1006.76
2018-10-06T01:22:30.393Z,1006.77
2018-10-06T01:23:30.385Z,1006.76
2018-10-06T01:24:30.369Z,1006.69
2018-10-06T01:25:30.383Z,1006.70
2018-10-06T01:26:30.348Z,1006.64
2018-10-06T01:27:30.335Z,1006.61
2018-10-06T01:28:30.350Z,1006.61
2018-10-06T01:29:30.320Z,1006.61
2018-10-06T01:30:30.340Z,1006.67
2018-10-06T01:31:30.293Z,1006.72
2018-10-06T01:32:30.284Z,1006.71
2018-10-06T01:33:30.273Z,1006.73
2018-10-06T01:34:30.261Z,1006.69
2018-10-06T01:35:30.258Z,1006.67
2018-10-06T01:36:30.272Z,1006.64
2018-10-06T01:37:30.230Z,1006.65
2018-10-06T01:38:30.220Z,1006.64
2018-10-06T01:39:30.207Z,1006.64
2018-10-06T01:40:30.200Z,1006.63
2018-10-06T01:41:30.186Z,1006.61
2018-10-06T01:42:30.200Z,1006.62
2018-10-06T01:43:30.166Z,1006.67
2018-10-06T01:44:30.166Z,1006.64
2018-10-06T01:45:30.141Z,1006.68
2018-10-06T01:46:30.136Z,1006.68
2018-10-06T01:47:30.150Z,1006.64
2018-10-06T01:48:30.111Z,1006.65
2018-10-06T01:49:30.102Z,1006.63
2018-10-06T01:50:30.089Z,1006.62
2018-10-06T01:51:30.078Z,1006.63
2018-10-06T01:52:30.099Z,1006.58
2018-10-06T01:53:30.060Z,1006.60
2018-10-06T01:54:30.046Z,1006.59
2018-10-06T01:55:30.045Z,1006.59
2018-10-06T01:56:30.025Z,1006.54
2018-10-06T01:57:30.014Z,1006.54
2018-10-06T01:58:30.029Z,1006.49
2018-10-06T01:59:29.996Z,1006.46
2018-10-06T02:00:29.983Z,1006.49
2018-10-06T02:01:29.972Z,1006.49
2018-10-06T02:02:29.964Z,1006.45
2018-10-06T02:03:29.973Z,1006.41
2018-10-06T02:04:29.938Z,1006.44
2018-10-06T02:05:29.927Z,1006.36
2018-10-06T02:06:29.924Z,1006.38
2018-10-06T02:07:29.922Z,1006.36
2018-10-06T02:08:29.934Z,1006.36
2018-10-06T02:09:29.887Z,1006.31
2018-10-06T02:10:29.877Z,1006.32
2018-10-06T02:11:29.862Z,1006.29
2018-10-06T02:12:29.855Z,1006.30
2018-10-06T02:13:29.843Z,1006.29
2018-10-06T02:14:29.856Z,1006.23
2018-10-06T02:15:29.821Z,1006.28
2018-10-06T02:16:29.809Z,1006.30
2018-10-06T02:17:29.797Z,1006.25
2018-10-06T02:18:29.790Z,1006.28
2018-10-06T02:19:29.810Z,1006.26
2018-10-06T02:20:29.777Z,1006.24
2018-10-06T02:21:29.755Z,1006.20
2018-10-06T02:22:29.752Z,1006.20
2018-10-06T02:23:29.734Z,1006.21
2018-10-06T02:24:29.765Z,1006.23
2018-10-06T02:25:29.715Z,1006.19
2018-10-06T02:26:29.703Z,1006.18
2018-10-06T02:27:29.694Z,1006.18
2018-10-06T02:28:29.680Z,1006.12
2018-10-06T02:29:29.671Z,1006.16
2018-10-06T02:30:29.684Z,1006.13
2018-10-06T02:31:29.651Z,1006.09
2018-10-06T02:32:29.644Z,1006.12
2018-10-06T02:33:29.630Z,1006.11
2018-10-06T02:34:29.622Z,1006.11
2018-10-06T02:35:29.630Z,1006.05
2018-10-06T02:36:29.597Z,1006.06
2018-10-06T02:37:29.588Z,1006.06
2018-10-06T02:38:29.602Z,1006.04
2018-10-06T02:39:29.563Z,1006.05
2018-10-06T02:40:29.600Z,1006.04
2018-10-06T02:41:29.540Z,1006.03
2018-10-06T02:42:29.529Z,1006.03
2018-10-06T02:43:29.522Z,1006.00
2018-10-06T02:44:29.510Z,1005.97
2018-10-06T02:45:29.502Z,1005.98
2018-10-06T02:46:29.511Z,1005.97
2018-10-06T02:47:29.484Z,1005.93
2018-10-06T02:48:29.474Z,1005.93
2018-10-06T02:49:29.454Z,1005.93
2018-10-06T02:50:29.445Z,1005.91
2018-10-06T02:51:29.460Z,1005.92
2018-10-06T02:52:29.422Z,1005.90
2018-10-06T02:53:29.412Z,1005.86
2018-10-06T02:54:29.405Z,1005.90
2018-10-06T02:55:29.391Z,1005.86
2018-10-06T02:56:29.406Z,1005.79
2018-10-06T02:57:29.377Z,1005.84
2018-10-06T02:58:29.361Z,1005.79
2018-10-06T02:59:29.349Z,1005.82
2018-10-06T03:00:29.341Z,1005.82
2018-10-06T03:01:29.348Z,1005.85
2018-10-06T03:02:29.317Z,1005.80
2018-10-06T03:03:29.305Z,1005.78
2018-10-06T03:04:29.359Z,1005.76
2018-10-06T03:05:29.289Z,1005.77
2018-10-06T03:06:29.316Z,1005.76
2018-10-06T03:07:29.274Z,1005.74
2018-10-06T03:08:29.251Z,1005.72
2018-10-06T03:09:29.245Z,1005.72
2018-10-06T03:10:29.243Z,1005.69
2018-10-06T03:11:29.222Z,1005.69
2018-10-06T03:12:29.248Z,1005.66
2018-10-06T03:13:29.199Z,1005.69
2018-10-06T03:14:29.189Z,1005.64
2018-10-06T03:15:29.178Z,1005.66
2018-10-06T03:16:29.169Z,1005.61
2018-10-06T03:17:29.182Z,1005.59
2018-10-06T03:18:29.351Z,1005.59
2018-10-06T03:19:29.136Z,1005.54
2018-10-06T03:20:29.122Z,1005.55
2018-10-06T03:21:29.113Z,1005.54
2018-10-06T03:22:29.129Z,1005.50
2018-10-06T03:23:29.089Z,1005.55
2018-10-06T03:24:29.079Z,1005.51
2018-10-06T03:25:29.077Z,1005.55
2018-10-06T03:26:29.057Z,1005.51
2018-10-06T03:27:29.077Z,1005.48
2018-10-06T03:28:29.038Z,1005.50
2018-10-06T03:29:29.030Z,1005.52
2018-10-06T03:30:29.015Z,1005.44
2018-10-06T03:31:29.003Z,1005.46
2018-10-06T03:32:29.014Z,1005.45
2018-10-06T03:33:29.008Z,1005.44
2018-10-06T03:34:28.973Z,1005.44
2018-10-06T03:35:28.969Z,1005.41
2018-10-06T03:36:28.953Z,1005.41
2018-10-06T03:37:28.940Z,1005.41
2018-10-06T03:38:28.971Z,1005.42
2018-10-06T03:39:28.920Z,1005.40
2018-10-06T03:40:28.909Z,1005.37
2018-10-06T03:41:28.896Z,1005.33
2018-10-06T03:42:28.890Z,1005.37
2018-10-06T03:43:28.882Z,1005.35
2018-10-06T03:44:28.889Z,1005.34
2018-10-06T03:45:28.854Z,1005.33
2018-10-06T03:46:28.843Z,1005.31
2018-10-06T03:47:28.834Z,1005.35
2018-10-06T03:48:28.821Z,1005.31
2018-10-06T03:49:28.839Z,1005.35
2018-10-06T03:50:28.801Z,1005.34
2018-10-06T03:51:28.969Z,1005.33
2018-10-06T03:52:28.778Z,1005.35
2018-10-06T03:53:28.779Z,1005.37
2018-10-06T03:54:28.785Z,1005.35
2018-10-06T03:55:28.747Z,1005.32
2018-10-06T03:56:28.736Z,1005.31
2018-10-06T03:57:28.729Z,1005.33
2018-10-06T03:58:28.715Z,1005.29
2018-10-06T03:59:28.727Z,1005.25
2018-10-06T04:00:28.697Z,1005.29
2018-10-06T04:01:28.688Z,1005.26
2018-10-06T04:02:28.689Z,1005.28
2018-10-06T04:03:28.683Z,1005.34
2018-10-06T04:04:28.684Z,1005.22
2018-10-06T04:05:28.664Z,1005.27
2018-10-06T04:06:28.631Z,1005.26
2018-10-06T04:07:28.620Z,1005.28
2018-10-06T04:08:28.614Z,1005.24
2018-10-06T04:09:28.600Z,1005.24
2018-10-06T04:10:28.625Z,1005.19
2018-10-06T04:11:28.576Z,1005.24
2018-10-06T04:12:28.568Z,1005.20
2018-10-06T04:13:28.561Z,1005.19
2018-10-06T04:14:28.546Z,1005.18
2018-10-06T04:15:28.532Z,1005.14
2018-10-06T04:16:28.555Z,1005.13
2018-10-06T04:17:28.519Z,1005.16
2018-10-06T04:18:28.505Z,1005.10
2018-10-06T04:19:28.492Z,1005.10
2018-10-06T04:20:28.481Z,1005.05
2018-10-06T04:21:28.494Z,1005.10
2018-10-06T04:22:28.460Z,1005.10
2018-10-06T04:23:28.451Z,1005.06
2018-10-06T04:24:28.438Z,1005.11
2018-10-06T04:25:28.429Z,1005.04
2018-10-06T04:26:28.447Z,1005.03
2018-10-06T04:27:28.412Z,1005.06
2018-10-06T04:28:28.490Z,1005.01
2018-10-06T04:29:28.384Z,1004.96
2018-10-06T04:30:28.384Z,1005.03
2018-10-06T04:31:28.419Z,1004.98
2018-10-06T04:32:28.366Z,1004.96
2018-10-06T04:33:28.342Z,1004.96
2018-10-06T04:34:28.335Z,1004.94
2018-10-06T04:35:28.323Z,1004.93
2018-10-06T04:36:28.343Z,1004.91
2018-10-06T04:37:28.305Z,1004.90
2018-10-06T04:38:28.288Z,1004.91
2018-10-06T04:39:28.279Z,1004.83
2018-10-06T04:40:28.277Z,1004.92
2018-10-06T04:41:28.259Z,1004.92
2018-10-06T04:42:28.272Z,1004.90
2018-10-06T04:43:28.237Z,1004.80
2018-10-06T04:44:28.242Z,1004.88
2018-10-06T04:45:28.255Z,1004.85
2018-10-06T04:46:28.202Z,1004.86
2018-10-06T04:47:28.219Z,1004.83
2018-10-06T04:48:28.184Z,1004.81
2018-10-06T04:49:28.171Z,1004.78
2018-10-06T04:50:28.161Z,1004.84
2018-10-06T04:51:28.165Z,1004.83
2018-10-06T04:52:28.166Z,1004.88
2018-10-06T04:53:28.131Z,1004.86
2018-10-06T04:54:28.120Z,1004.83
2018-10-06T04:55:28.109Z,1004.77
2018-10-06T04:56:28.096Z,1004.82
2018-10-06T04:57:28.112Z,1004.78
2018-10-06T04:58:28.146Z,1004.76
2018-10-06T04:59:28.065Z,1004.79
2018-10-06T05:00:28.053Z,1004.79
2018-10-06T05:01:28.055Z,1004.71
2018-10-06T05:02:28.069Z,1004.70
2018-10-06T05:03:28.138Z,1004.72
2018-10-06T05:04:28.011Z,1004.76
2018-10-06T05:05:28.001Z,1004.71
2018-10-06T05:06:28.000Z,1004.70
2018-10-06T05:07:27.984Z,1004.66
2018-10-06T05:08:27.991Z,1004.66
2018-10-06T05:09:27.965Z,1004.65
2018-10-06T05:10:27.955Z,1004.72
2018-10-06T05:11:27.935Z,1004.67
2018-10-06T05:12:27.925Z,1004.68
2018-10-06T05:13:27.941Z,1004.73
2018-10-06T05:14:27.914Z,1004.73
2018-10-06T05:15:27.908Z,1004.73
2018-10-06T05:16:27.883Z,1004.74
2018-10-06T05:17:27.873Z,1004.71
2018-10-06T05:18:27.888Z,1004.73
2018-10-06T05:19:27.853Z,1004.78
2018-10-06T05:20:27.843Z,1004.62
2018-10-06T05:21:27.854Z,1004.68
2018-10-06T05:22:27.820Z,1004.68
2018-10-06T05:23:27.904Z,1004.64
2018-10-06T05:24:27.801Z,1004.61
2018-10-06T05:25:27.803Z,1004.62
2018-10-06T05:26:27.779Z,1004.59
2018-10-06T05:27:27.766Z,1004.63
2018-10-06T05:28:27.799Z,1004.61
2018-10-06T05:29:27.747Z,1004.63
2018-10-06T05:30:27.760Z,1004.60
2018-10-06T05:31:27.724Z,1004.59
2018-10-06T05:32:27.715Z,1004.59
2018-10-06T05:33:27.701Z,1004.56
2018-10-06T05:34:27.729Z,1004.58
2018-10-06T05:35:27.694Z,1004.60
2018-10-06T05:36:27.674Z,1004.56
2018-10-06T05:37:27.663Z,1004.57
2018-10-06T05:38:27.653Z,1004.59
2018-10-06T05:39:27.645Z,1004.55
2018-10-06T05:40:27.677Z,1004.59
2018-10-06T05:41:27.618Z,1004.62
2018-10-06T05:42:27.608Z,1004.57
2018-10-06T05:43:27.601Z,1004.61
2018-10-06T05:44:27.588Z,1004.56
2018-10-06T05:45:27.608Z,1004.63
2018-10-06T05:46:27.661Z,1004.60
2018-10-06T05:47:27.556Z,1004.61
2018-10-06T05:48:27.553Z,1004.57
2018-10-06T05:49:27.531Z,1004.57
2018-10-06T05:50:27.548Z,1004.56
2018-10-06T05:51:27.510Z,1004.53
2018-10-06T05:52:27.510Z,1004.56
2018-10-06T05:53:27.487Z,1004.52
2018-10-06T05:54:27.480Z,1004.51
2018-10-06T05:55:27.493Z,1004.54
2018-10-06T05:56:27.460Z,1004.51
2018-10-06T05:57:27.449Z,1004.50
2018-10-06T05:58:27.435Z,1004.49
2018-10-06T05:59:27.422Z,1004.51
2018-10-06T06:00:27.460Z,1004.51
2018-10-06T06:01:27.412Z,1004.52
2018-10-06T06:02:27.393Z,1004.45
2018-10-06T06:03:27.385Z,1004.48
2018-10-06T06:04:27.373Z,1004.51
2018-10-06T06:05:27.359Z,1004.50
2018-10-06T06:06:27.386Z,1004.49
2018-10-06T06:07:27.343Z,1004.50
2018-10-06T06:08:27.338Z,1004.46
2018-10-06T06:09:27.322Z,1004.47
2018-10-06T06:10:27.311Z,1004.47
2018-10-06T06:11:27.301Z,1004.46
2018-10-06T06:12:27.331Z,1004.44
2018-10-06T06:13:27.273Z,1004.43
2018-10-06T06:14:27.261Z,1004.48
2018-10-06T06:15:27.266Z,1004.45
2018-10-06T06:16:27.244Z,1004.45
2018-10-06T06:17:27.259Z,1004.42
2018-10-06T06:18:27.221Z,1004.40
2018-10-06T06:19:27.236Z,1004.41
2018-10-06T06:20:27.225Z,1004.39
2018-10-06T06:21:27.187Z,1004.43
2018-10-06T06:22:27.214Z,1004.42
2018-10-06T06:23:27.169Z,1004.45
2018-10-06T06:24:27.163Z,1004.42
2018-10-06T06:25:27.147Z,1004.40
2018-10-06T06:26:27.140Z,1004.39
2018-10-06T06:27:27.151Z,1004.36
2018-10-06T06:28:27.114Z,1004.39
2018-10-06T06:29:27.102Z,1004.32
2018-10-06T06:30:27.093Z,1004.37
2018-10-06T06:31:27.221Z,1004.30
2018-10-06T06:32:27.072Z,1004.34
2018-10-06T06:33:27.126Z,1004.35
2018-10-06T06:34:27.048Z,1004.34
2018-10-06T06:35:27.044Z,1004.35
2018-10-06T06:36:27.031Z,1004.38
2018-10-06T06:37:27.019Z,1004.31
2018-10-06T06:38:27.069Z,1004.30
2018-10-06T06:39:27.018Z,1004.30
2018-10-06T06:40:26.993Z,1004.27
2018-10-06T06:41:26.979Z,1004.27
2018-10-06T06:42:26.962Z,1004.22
2018-10-06T06:43:27.001Z,1004.22
2018-10-06T06:44:27.121Z,1004.29
2018-10-06T06:45:26.934Z,1004.33
2018-10-06T06:46:26.921Z,1004.30
2018-10-06T06:47:26.910Z,1004.32
2018-10-06T06:48:26.897Z,1004.35
2018-10-06T06:49:26.925Z,1004.35
2018-10-06T06:50:26.877Z,1004.39
2018-10-06T06:51:26.866Z,1004.40
2018-10-06T06:52:26.855Z,1004.37
2018-10-06T06:53:26.841Z,1004.43
2018-10-06T06:54:26.833Z,1004.46
2018-10-06T06:55:26.848Z,1004.39
2018-10-06T06:56:26.810Z,1004.43
2018-10-06T06:57:26.823Z,1004.38
2018-10-06T06:58:26.803Z,1004.37
2018-10-06T06:59:26.790Z,1004.38
2018-10-06T07:00:26.813Z,1004.31
2018-10-06T07:01:26.756Z,1004.33
2018-10-06T07:02:26.746Z,1004.30
2018-10-06T07:03:26.736Z,1004.26
2018-10-06T07:04:26.740Z,1004.23
2018-10-06T07:05:26.716Z,1004.23
2018-10-06T07:06:26.737Z,1004.23
2018-10-06T07:07:26.691Z,1004.21
2018-10-06T07:08:26.685Z,1004.27
2018-10-06T07:09:26.673Z,1004.27
2018-10-06T07:10:26.668Z,1004.21
2018-10-06T07:11:26.687Z,1004.26
2018-10-06T07:12:26.659Z,1004.25
2018-10-06T07:13:26.629Z,1004.23
2018-10-06T07:14:26.618Z,1004.27
2018-10-06T07:15:26.606Z,1004.32
2018-10-06T07:16:26.622Z,1004.30
2018-10-06T07:17:26.595Z,1004.30
2018-10-06T07:18:26.613Z,1004.27
2018-10-06T07:19:26.564Z,1004.26
2018-10-06T07:20:26.554Z,1004.28
2018-10-06T07:21:27.396Z,1004.26
2018-10-06T07:22:26.534Z,1004.29
2018-10-06T07:23:26.635Z,1004.28
2018-10-06T07:24:26.571Z,1004.24
2018-10-06T07:25:26.518Z,1004.23
2018-10-06T07:26:26.489Z,1004.23
2018-10-06T07:27:26.502Z,1004.22
2018-10-06T07:28:26.472Z,1004.23
2018-10-06T07:29:26.480Z,1004.24
2018-10-06T07:30:26.445Z,1004.26
2018-10-06T07:31:26.442Z,1004.27
2018-10-06T07:32:26.455Z,1004.20
2018-10-06T07:33:26.418Z,1004.21
2018-10-06T07:34:26.404Z,1004.23
2018-10-06T07:35:26.395Z,1004.24
2018-10-06T07:36:26.385Z,1004.26
2018-10-06T07:37:26.379Z,1004.24
2018-10-06T07:38:26.400Z,1004.26
2018-10-06T07:39:26.353Z,1004.28
2018-10-06T07:40:26.344Z,1004.24
2018-10-06T07:41:26.330Z,1004.26
2018-10-06T07:42:26.321Z,1004.27
2018-10-06T07:43:26.308Z,1004.27
2018-10-06T07:44:26.322Z,1004.27
2018-10-06T07:45:26.286Z,1004.26
2018-10-06T07:46:26.278Z,1004.23
2018-10-06T07:47:26.269Z,1004.25
2018-10-06T07:48:26.261Z,1004.29
2018-10-06T07:49:26.269Z,1004.28
2018-10-06T07:50:26.233Z,1004.23
2018-10-06T07:51:26.223Z,1004.26
2018-10-06T07:52:26.215Z,1004.22
2018-10-06T07:53:26.204Z,1004.25
2018-10-06T07:54:26.216Z,1004.17
2018-10-06T07:55:26.179Z,1004.23
2018-10-06T07:56:26.173Z,1004.17
2018-10-06T07:57:26.173Z,1004.19
2018-10-06T07:58:26.146Z,1004.18
2018-10-06T07:59:26.304Z,1004.17
2018-10-06T08:00:26.133Z,1004.19
2018-10-06T08:01:26.118Z,1004.18
2018-10-06T08:02:26.103Z,1004.22
2018-10-06T08:03:26.094Z,1004.22
2018-10-06T08:04:26.083Z,1004.18
2018-10-06T08:05:26.110Z,1004.18
2018-10-06T08:06:26.077Z,1004.16
2018-10-06T08:07:26.049Z,1004.14
2018-10-06T08:08:26.045Z,1004.14
2018-10-06T08:09:26.028Z,1004.10
2018-10-06T08:10:26.019Z,1004.10
2018-10-06T08:11:26.033Z,1004.07
2018-10-06T08:12:25.997Z,1004.11
2018-10-06T08:13:25.989Z,1004.15
2018-10-06T08:14:25.989Z,1004.12
2018-10-06T08:15:25.967Z,1004.04
2018-10-06T08:16:25.977Z,1004.04
2018-10-06T08:17:25.940Z,1004.02
2018-10-06T08:18:25.942Z,1004.05
2018-10-06T08:19:25.920Z,1004.05
2018-10-06T08:20:25.906Z,1004.03
2018-10-06T08:21:25.924Z,1003.99
2018-10-06T08:22:25.890Z,1004.03
2018-10-06T08:23:25.877Z,1004.04
2018-10-06T08:24:25.865Z,1004.01
2018-10-06T08:25:25.866Z,1003.96
2018-10-06T08:26:25.866Z,1003.97
2018-10-06T08:27:25.854Z,1003.96
2018-10-06T08:28:25.823Z,1003.96
2018-10-06T08:29:25.810Z,1003.98
2018-10-06T08:30:25.797Z,1003.90
2018-10-06T08:31:25.823Z,1003.95
2018-10-06T08:32:25.807Z,1003.92
2018-10-06T08:33:25.774Z,1003.88
2018-10-06T08:34:25.757Z,1003.89
2018-10-06T08:35:25.767Z,1003.87
2018-10-06T08:36:25.734Z,1003.87
2018-10-06T08:37:25.754Z,1003.85
2018-10-06T08:38:25.726Z,1003.86
2018-10-06T08:39:25.703Z,1003.89
2018-10-06T08:40:25.694Z,1003.85
2018-10-06T08:41:25.681Z,1003.85
2018-10-06T08:42:25.672Z,1003.80
2018-10-06T08:43:25.687Z,1003.78
2018-10-06T08:44:25.649Z,1003.80
2018-10-06T08:45:25.638Z,1003.79
2018-10-06T08:46:25.633Z,1003.76
2018-10-06T08:47:25.630Z,1003.77
2018-10-06T08:48:25.635Z,1003.77
2018-10-06T08:49:25.599Z,1003.76
2018-10-06T08:50:25.589Z,1003.77
2018-10-06T08:51:25.584Z,1003.81
2018-10-06T08:52:25.572Z,1003.79
2018-10-06T08:53:25.577Z,1003.78
2018-10-06T08:54:25.546Z,1003.72
2018-10-06T08:55:25.529Z,1003.77
2018-10-06T08:56:25.571Z,1003.74
2018-10-06T08:57:26.033Z,1003.75
2018-10-06T08:58:25.523Z,1003.74
2018-10-06T08:59:25.494Z,1003.70
2018-10-06T09:00:25.476Z,1003.69
2018-10-06T09:01:25.467Z,1003.68
2018-10-06T09:02:25.455Z,1003.67
2018-10-06T09:03:25.477Z,1003.63
2018-10-06T09:04:25.550Z,1003.62
2018-10-06T09:05:25.422Z,1003.63
2018-10-06T09:06:25.411Z,1003.66
2018-10-06T09:07:25.402Z,1003.64
2018-10-06T09:08:26.047Z,1003.67
2018-10-06T09:09:25.378Z,1003.64
2018-10-06T09:10:25.368Z,1003.64
2018-10-06T09:11:25.356Z,1003.69
2018-10-06T09:12:25.347Z,1003.65
2018-10-06T09:13:25.382Z,1003.65
2018-10-06T09:14:25.393Z,1003.62
2018-10-06T09:15:25.314Z,1003.64
2018-10-06T09:16:25.305Z,1003.64
2018-10-06T09:17:25.294Z,1003.60
2018-10-06T09:18:25.286Z,1003.55
2018-10-06T09:19:25.323Z,1003.52
2018-10-06T09:20:25.260Z,1003.55
2018-10-06T09:21:25.263Z,1003.52
2018-10-06T09:22:25.239Z,1003.57
2018-10-06T09:23:25.228Z,1003.48
2018-10-06T09:24:25.220Z,1003.55
2018-10-06T09:25:25.868Z,1003.51
2018-10-06T09:26:25.195Z,1003.48
2018-10-06T09:27:25.194Z,1003.46
2018-10-06T09:28:25.285Z,1003.47
2018-10-06T09:29:25.329Z,1003.45
2018-10-06T09:30:25.183Z,1003.43
2018-10-06T09:31:25.144Z,1003.39
2018-10-06T09:32:25.136Z,1003.37
2018-10-06T09:33:25.126Z,1003.37
2018-10-06T09:34:25.111Z,1003.37
2018-10-06T09:35:25.123Z,1003.33
2018-10-06T09:36:25.273Z,1003.32
2018-10-06T09:37:25.089Z,1003.34
2018-10-06T09:38:25.074Z,1003.32
2018-10-06T09:39:25.065Z,1003.32
2018-10-06T09:40:25.093Z,1003.30
2018-10-06T09:41:25.049Z,1003.30
2018-10-06T09:42:25.084Z,1003.31
2018-10-06T09:43:25.016Z,1003.27
2018-10-06T09:44:25.014Z,1003.29
2018-10-06T09:45:25.001Z,1003.26
2018-10-06T09:46:25.020Z,1003.24
2018-10-06T09:47:24.972Z,1003.29
2018-10-06T09:48:24.965Z,1003.22
2018-10-06T09:49:24.951Z,1003.21
2018-10-06T09:50:24.939Z,1003.19
2018-10-06T09:51:24.930Z,1003.15
2018-10-06T09:52:24.944Z,1003.16
2018-10-06T09:53:24.907Z,1003.15
2018-10-06T09:54:24.897Z,1003.22
2018-10-06T09:55:24.888Z,1003.19
2018-10-06T09:56:24.879Z,1003.22
2018-10-06T09:57:24.894Z,1003.18
2018-10-06T09:58:24.855Z,1003.16
2018-10-06T09:59:24.847Z,1003.17
2018-10-06T10:00:24.829Z,1003.20
2018-10-06T10:01:24.820Z,1003.19
2018-10-06T10:02:24.830Z,1003.17
2018-10-06T10:03:24.799Z,1003.17
2018-10-06T10:04:24.813Z,1003.20
2018-10-06T10:05:24.843Z,1003.21
2018-10-06T10:06:24.764Z,1003.21
2018-10-06T10:07:24.783Z,1003.21
2018-10-06T10:08:24.753Z,1003.16
2018-10-06T10:09:24.748Z,1003.17
2018-10-06T10:10:24.732Z,1003.16
2018-10-06T10:11:24.708Z,1003.16
2018-10-06T10:12:24.775Z,1003.17
2018-10-06T10:13:24.709Z,1003.19
2018-10-06T10:14:24.676Z,1003.13
2018-10-06T10:15:24.721Z,1003.12
2018-10-06T10:16:24.657Z,1003.11
2018-10-06T10:17:24.666Z,1003.12
2018-10-06T10:18:24.787Z,1003.14
2018-10-06T10:19:24.621Z,1003.10
2018-10-06T10:20:24.611Z,1003.11
2018-10-06T10:21:24.605Z,1003.08
2018-10-06T10:22:24.793Z,1003.05
2018-10-06T10:23:24.670Z,1003.08
2018-10-06T10:24:24.572Z,1003.09
2018-10-06T10:25:24.557Z,1003.06
2018-10-06T10:26:24.545Z,1003.06
2018-10-06T10:27:24.648Z,1003.04
2018-10-06T10:28:24.606Z,1003.06
2018-10-06T10:29:24.541Z,1003.05
2018-10-06T10:30:24.510Z,1003.03
2018-10-06T10:31:24.489Z,1003.02
2018-10-06T10:32:24.480Z,1003.04
2018-10-06T10:33:24.478Z,1003.05
2018-10-06T10:34:24.491Z,1003.06
2018-10-06T10:35:24.451Z,1003.03
2018-10-06T10:36:24.437Z,1002.99
2018-10-06T10:37:24.435Z,1003.00
2018-10-06T10:38:24.418Z,1003.03
2018-10-06T10:39:24.486Z,1003.02
2018-10-06T10:40:24.412Z,1002.97
2018-10-06T10:41:24.404Z,1003.05
2018-10-06T10:42:24.382Z,1002.97
2018-10-06T10:43:24.362Z,1002.98
2018-10-06T10:44:24.425Z,1002.97
2018-10-06T10:45:24.366Z,1002.94
2018-10-06T10:46:24.377Z,1002.94
2018-10-06T10:47:24.324Z,1002.96
2018-10-06T10:48:24.383Z,1002.91
2018-10-06T10:49:24.330Z,1002.91
2018-10-06T10:50:24.316Z,1002.93
2018-10-06T10:51:24.278Z,1002.91
2018-10-06T10:52:24.273Z,1002.96
2018-10-06T10:53:24.256Z,1002.91
2018-10-06T10:54:24.275Z,1002.92
2018-10-06T10:55:24.324Z,1002.92
2018-10-06T10:56:24.231Z,1002.90
2018-10-06T10:57:24.214Z,1002.87
2018-10-06T10:58:24.208Z,1002.86
2018-10-06T10:59:24.273Z,1002.86
2018-10-06T11:00:24.231Z,1002.86
2018-10-06T11:01:24.203Z,1002.82
2018-10-06T11:02:24.169Z,1002.83
2018-10-06T11:03:24.147Z,1002.80
2018-10-06T11:04:24.138Z,1002.73
2018-10-06T11:05:24.134Z,1002.75
2018-10-06T11:06:24.164Z,1002.77
2018-10-06T11:07:24.107Z,1002.75
2018-10-06T11:08:24.097Z,1002.75
2018-10-06T11:09:24.084Z,1002.72
2018-10-06T11:10:24.074Z,1002.74
2018-10-06T11:11:24.110Z,1002.71
2018-10-06T11:12:24.077Z,1002.70
2018-10-06T11:13:24.041Z,1002.68
2018-10-06T11:14:24.042Z,1002.66
2018-10-06T11:15:24.019Z,1002.66
2018-10-06T11:16:24.074Z,1002.67
2018-10-06T11:17:24.025Z,1002.65
2018-10-06T11:18:23.987Z,1002.59
2018-10-06T11:19:23.976Z,1002.61
2018-10-06T11:20:23.971Z,1002.60
2018-10-06T11:21:23.960Z,1002.59
2018-10-06T11:22:23.980Z,1002.59
2018-10-06T11:23:23.936Z,1002.55
2018-10-06T11:24:23.923Z,1002.57
2018-10-06T11:25:23.912Z,1002.47
2018-10-06T11:26:23.922Z,1002.50
2018-10-06T11:27:23.907Z,1002.47
2018-10-06T11:28:23.903Z,1002.45
2018-10-06T11:29:23.876Z,1002.45
2018-10-06T11:30:23.901Z,1002.40
2018-10-06T11:31:23.847Z,1002.39
2018-10-06T11:32:23.852Z,1002.35
2018-10-06T11:33:23.861Z,1002.31
2018-10-06T11:34:23.814Z,1002.29
2018-10-06T11:35:23.823Z,1002.24
2018-10-06T11:36:23.792Z,1002.22
2018-10-06T11:37:23.935Z,1002.24
2018-10-06T11:38:23.808Z,1002.21
2018-10-06T11:39:23.768Z,1002.18
2018-10-06T11:40:23.763Z,1002.15
2018-10-06T11:41:23.738Z,1002.12
2018-10-06T11:42:23.761Z,1002.11
2018-10-06T11:43:23.823Z,1002.04
2018-10-06T11:44:23.737Z,1002.10
2018-10-06T11:45:23.705Z,1002.07
2018-10-06T11:46:23.686Z,1002.02
2018-10-06T11:47:23.714Z,1002.03
2018-10-06T11:48:23.664Z,1002.00
2018-10-06T11:49:23.677Z,1001.96
2018-10-06T11:50:23.708Z,1001.97
2018-10-06T11:51:23.636Z,1001.93
2018-10-06T11:52:23.732Z,1001.89
2018-10-06T11:53:23.612Z,1001.91
2018-10-06T11:54:23.624Z,1001.87
2018-10-06T11:55:23.594Z,1001.83
2018-10-06T11:56:23.580Z,1001.83
2018-10-06T11:57:23.574Z,1001.77
2018-10-06T11:58:23.563Z,1001.79
2018-10-06T11:59:23.580Z,1001.73
2018-10-06T12:00:23.648Z,1001.74
2018-10-06T12:01:23.527Z,1001.72
2018-10-06T12:02:23.520Z,1001.73
2018-10-06T12:03:23.560Z,1001.70
2018-10-06T12:04:23.494Z,1001.66
2018-10-06T12:05:23.513Z,1001.65